UAL1497 KPHL-KSFO
Flight info
| Callsign | UAL1497 |
|---|---|
| Flight time | N/A |
| Altitude | 32000 |
| Route | PTW SARAA RAV PSB J60 DJB OBK DBQ KP72E/N0457F340 SNY EKR LOOLO DTA RUMPS OAL INYOE DYAMD5 |
| Aircraft | B38M/M-SDE1FGHILORVWXY/HB1 |
Departure
| Time | N/A |
|---|---|
| Airport | Philadelphia International Airport (KPHL) |
Arrival
| Time | 2026-05-04 23:26 |
|---|---|
| Airport | San Francisco International Airport (KSFO) |
| Time | Latitude | Longitude | Altitude | Speed | Heading |
|---|---|---|---|---|---|
| 2026-05-04 23:03 | 37.76432 | -119.88234 | 30240 ft | 463 kts | 260° |
| 2026-05-04 23:03 | 37.75938 | -119.92250 | 29833 ft | 463 kts | 260° |
| 2026-05-04 23:04 | 37.75282 | -119.97576 | 29279 ft | 462 kts | 260° |
| 2026-05-04 23:04 | 37.74789 | -120.01574 | 28857 ft | 460 kts | 260° |
| 2026-05-04 23:04 | 37.74462 | -120.04220 | 28567 ft | 458 kts | 260° |
| 2026-05-04 23:04 | 37.73970 | -120.08176 | 28144 ft | 455 kts | 260° |
| 2026-05-04 23:05 | 37.73480 | -120.12118 | 27721 ft | 452 kts | 260° |
| 2026-05-04 23:05 | 37.72993 | -120.16024 | 27311 ft | 450 kts | 259° |
| 2026-05-04 23:05 | 37.72506 | -120.19914 | 26898 ft | 447 kts | 259° |
| 2026-05-04 23:05 | 37.72021 | -120.23784 | 26491 ft | 444 kts | 259° |
| 2026-05-04 23:06 | 37.71539 | -120.27622 | 26094 ft | 441 kts | 259° |
| 2026-05-04 23:06 | 37.71059 | -120.31437 | 25699 ft | 439 kts | 259° |
| 2026-05-04 23:06 | 37.70579 | -120.35232 | 25314 ft | 436 kts | 259° |
| 2026-05-04 23:06 | 37.70104 | -120.38995 | 24926 ft | 433 kts | 259° |
| 2026-05-04 23:07 | 37.69816 | -120.42769 | 24548 ft | 431 kts | 264° |
| 2026-05-04 23:07 | 37.69597 | -120.46546 | 24193 ft | 431 kts | 261° |
| 2026-05-04 23:07 | 37.69074 | -120.50260 | 23880 ft | 427 kts | 257° |
| 2026-05-04 23:07 | 37.68572 | -120.53934 | 23637 ft | 422 kts | 258° |
| 2026-05-04 23:08 | 37.68093 | -120.57573 | 23377 ft | 419 kts | 258° |
| 2026-05-04 23:08 | 37.67624 | -120.61214 | 23092 ft | 425 kts | 258° |
| 2026-05-04 23:08 | 37.67149 | -120.64941 | 22730 ft | 430 kts | 258° |
| 2026-05-04 23:08 | 37.66678 | -120.68634 | 22402 ft | 422 kts | 258° |
| 2026-05-04 23:09 | 37.66218 | -120.72251 | 22093 ft | 413 kts | 258° |
| 2026-05-04 23:09 | 37.65784 | -120.75763 | 21800 ft | 406 kts | 259° |
| 2026-05-04 23:09 | 37.65366 | -120.79258 | 21514 ft | 402 kts | 259° |
| 2026-05-04 23:09 | 37.64943 | -120.82763 | 21193 ft | 411 kts | 259° |
| 2026-05-04 23:10 | 37.64502 | -120.86402 | 21021 ft | 426 kts | 259° |
| 2026-05-04 23:10 | 37.64049 | -120.90132 | 21021 ft | 434 kts | 259° |
| 2026-05-04 23:10 | 37.63588 | -120.93922 | 21025 ft | 439 kts | 259° |
| 2026-05-04 23:10 | 37.63098 | -120.97727 | 20827 ft | 438 kts | 258° |
| 2026-05-04 23:11 | 37.62596 | -121.01475 | 20437 ft | 423 kts | 258° |
| 2026-05-04 23:11 | 37.62121 | -121.05042 | 20093 ft | 403 kts | 258° |
| 2026-05-04 23:11 | 37.61665 | -121.08468 | 19650 ft | 390 kts | 258° |
| 2026-05-04 23:11 | 37.61218 | -121.11823 | 19106 ft | 386 kts | 257° |
| 2026-05-04 23:12 | 37.60774 | -121.15140 | 18568 ft | 382 kts | 257° |
| 2026-05-04 23:12 | 37.60336 | -121.18412 | 18012 ft | 375 kts | 257° |
| 2026-05-04 23:12 | 37.59905 | -121.21625 | 17425 ft | 367 kts | 257° |
| 2026-05-04 23:12 | 37.59484 | -121.24765 | 16846 ft | 360 kts | 257° |
| 2026-05-04 23:13 | 37.59109 | -121.27867 | 16279 ft | 354 kts | 259° |
| 2026-05-04 23:13 | 37.58765 | -121.30914 | 15724 ft | 348 kts | 259° |
| 2026-05-04 23:13 | 37.58420 | -121.33917 | 15171 ft | 344 kts | 259° |
| 2026-05-04 23:13 | 37.58079 | -121.36871 | 14628 ft | 338 kts | 259° |
| 2026-05-04 23:14 | 37.57742 | -121.39776 | 14103 ft | 332 kts | 259° |
| 2026-05-04 23:14 | 37.57409 | -121.42637 | 13549 ft | 328 kts | 259° |
| 2026-05-04 23:14 | 37.57079 | -121.45464 | 12969 ft | 324 kts | 259° |
| 2026-05-04 23:14 | 37.56753 | -121.48256 | 12382 ft | 320 kts | 259° |
| 2026-05-04 23:15 | 37.56431 | -121.51004 | 11827 ft | 313 kts | 258° |
| 2026-05-04 23:15 | 37.56115 | -121.53694 | 11290 ft | 308 kts | 259° |
| 2026-05-04 23:15 | 37.55804 | -121.56334 | 10801 ft | 301 kts | 258° |
| 2026-05-04 23:15 | 37.55502 | -121.58890 | 10424 ft | 297 kts | 258° |
| 2026-05-04 23:16 | 37.55198 | -121.61471 | 10129 ft | 299 kts | 258° |
| 2026-05-04 23:16 | 37.54723 | -121.64009 | 9796 ft | 297 kts | 249° |
| 2026-05-04 23:16 | 37.54099 | -121.66491 | 9450 ft | 296 kts | 250° |
| 2026-05-04 23:16 | 37.53500 | -121.68958 | 9104 ft | 293 kts | 250° |
| 2026-05-04 23:17 | 37.52916 | -121.71405 | 8766 ft | 289 kts | 250° |
| 2026-05-04 23:17 | 37.52344 | -121.73828 | 8432 ft | 287 kts | 250° |
| 2026-05-04 23:17 | 37.51782 | -121.76230 | 8096 ft | 285 kts | 250° |
| 2026-05-04 23:17 | 37.51225 | -121.78615 | 7781 ft | 283 kts | 250° |
| 2026-05-04 23:18 | 37.50671 | -121.80943 | 7457 ft | 272 kts | 250° |
| 2026-05-04 23:18 | 37.50124 | -121.83217 | 7142 ft | 271 kts | 250° |
| 2026-05-04 23:18 | 37.49579 | -121.85486 | 6830 ft | 270 kts | 250° |
| 2026-05-04 23:18 | 37.49146 | -121.87779 | 6481 ft | 269 kts | 265° |
| 2026-05-04 23:19 | 37.49233 | -121.90103 | 6157 ft | 263 kts | 271° |
| 2026-05-04 23:19 | 37.49365 | -121.92397 | 5881 ft | 264 kts | 271° |
| 2026-05-04 23:19 | 37.49499 | -121.94709 | 5548 ft | 265 kts | 271° |
| 2026-05-04 23:19 | 37.49632 | -121.96989 | 5228 ft | 262 kts | 271° |
| 2026-05-04 23:20 | 37.49761 | -121.99232 | 4898 ft | 251 kts | 271° |
| 2026-05-04 23:20 | 37.49883 | -122.01356 | 4588 ft | 236 kts | 271° |
| 2026-05-04 23:20 | 37.49999 | -122.03387 | 4265 ft | 232 kts | 271° |
| 2026-05-04 23:20 | 37.50109 | -122.05327 | 4026 ft | 228 kts | 271° |
| 2026-05-04 23:21 | 37.50220 | -122.07283 | 4011 ft | 228 kts | 271° |
| 2026-05-04 23:21 | 37.50385 | -122.09275 | 3984 ft | 230 kts | 282° |
| 2026-05-04 23:21 | 37.51028 | -122.11122 | 3726 ft | 232 kts | 295° |
| 2026-05-04 23:21 | 37.51771 | -122.12898 | 3408 ft | 229 kts | 295° |
| 2026-05-04 23:22 | 37.52508 | -122.14672 | 3075 ft | 224 kts | 294° |
| 2026-05-04 23:22 | 37.53196 | -122.16332 | 3057 ft | 201 kts | 294° |
| 2026-05-04 23:22 | 37.53838 | -122.17869 | 3036 ft | 198 kts | 295° |
| 2026-05-04 23:22 | 37.54490 | -122.19394 | 2923 ft | 195 kts | 295° |
| 2026-05-04 23:23 | 37.55110 | -122.20848 | 2697 ft | 183 kts | 294° |
| 2026-05-04 23:23 | 37.55694 | -122.22233 | 2483 ft | 176 kts | 294° |
| 2026-05-04 23:23 | 37.56246 | -122.23549 | 2271 ft | 162 kts | 294° |
| 2026-05-04 23:23 | 37.56762 | -122.24781 | 2072 ft | 156 kts | 294° |
| 2026-05-04 23:24 | 37.57259 | -122.25958 | 1797 ft | 147 kts | 294° |
| 2026-05-04 23:24 | 37.57746 | -122.27062 | 1570 ft | 143 kts | 294° |
| 2026-05-04 23:24 | 37.58225 | -122.28176 | 1373 ft | 145 kts | 294° |
| 2026-05-04 23:24 | 37.58691 | -122.29302 | 1202 ft | 144 kts | 292° |
| 2026-05-04 23:25 | 37.59122 | -122.30400 | 1038 ft | 139 kts | 292° |
| 2026-05-04 23:25 | 37.59576 | -122.31490 | 717 ft | 143 kts | 296° |
| 2026-05-04 23:25 | 37.60049 | -122.32539 | 555 ft | 136 kts | 294° |
| 2026-05-04 23:25 | 37.60475 | -122.33625 | 417 ft | 140 kts | 297° |
| 2026-05-04 23:26 | 37.60928 | -122.34687 | 237 ft | 134 kts | 290° |
| 2026-05-04 23:26 | 37.61339 | -122.35695 | 56 ft | 128 kts | 295° |
| 2026-05-04 23:26 | 37.61741 | -122.36641 | 21 ft | 101 kts | 297° |
| 2026-05-04 23:26 | 37.61965 | -122.37175 | 21 ft | 38 kts | 298° |
| 2026-05-04 23:27 | 37.62097 | -122.37488 | 22 ft | 38 kts | 298° |
| 2026-05-04 23:27 | 37.62187 | -122.37732 | 21 ft | 26 kts | 284° |
| 2026-05-04 23:27 | 37.62211 | -122.37936 | 21 ft | 20 kts | 278° |
| 2026-05-04 23:27 | 37.62222 | -122.38031 | 21 ft | 7 kts | 276° |
| 2026-05-04 23:28 | 37.62224 | -122.38054 | 21 ft | 2 kts | 276° |
| 2026-05-04 23:28 | 37.62226 | -122.38081 | 21 ft | 4 kts | 276° |
| 2026-05-04 23:28 | 37.62230 | -122.38130 | 21 ft | 7 kts | 275° |
| 2026-05-04 23:28 | 37.62230 | -122.38197 | 21 ft | 9 kts | 269° |
| 2026-05-04 23:29 | 37.62224 | -122.38283 | 21 ft | 11 kts | 264° |
| 2026-05-04 23:29 | 37.62220 | -122.38388 | 21 ft | 13 kts | 268° |
| 2026-05-04 23:29 | 37.62217 | -122.38500 | 21 ft | 12 kts | 268° |
| 2026-05-04 23:29 | 37.62210 | -122.38598 | 23 ft | 9 kts | 246° |
| 2026-05-04 23:30 | 37.62155 | -122.38628 | 23 ft | 11 kts | 160° |
| 2026-05-04 23:30 | 37.62113 | -122.38555 | 21 ft | 11 kts | 118° |
| 2026-05-04 23:30 | 37.62078 | -122.38500 | 21 ft | 4 kts | 163° |
| 2026-05-04 23:30 | 37.62050 | -122.38509 | 23 ft | 5 kts | 202° |
| 2026-05-04 23:31 | 37.62040 | -122.38515 | 21 ft | 0 kts | 207° |
| 2026-05-04 23:31 | 37.62035 | -122.38518 | 23 ft | 3 kts | 207° |
| 2026-05-04 23:31 | 37.62009 | -122.38535 | 21 ft | 0 kts | 207° |
| 2026-05-04 23:31 | 37.62001 | -122.38540 | 22 ft | 3 kts | 207° |
| 2026-05-04 23:32 | 37.61987 | -122.38549 | 21 ft | 1 kts | 207° |
| 2026-05-04 23:32 | 37.61982 | -122.38552 | 21 ft | 0 kts | 207° |
| 2026-05-04 23:33 | 37.61977 | -122.38555 | 23 ft | 2 kts | 201° |
| 2026-05-04 23:33 | 37.61964 | -122.38558 | 21 ft | 0 kts | 183° |
| 2026-05-04 23:33 | 37.61956 | -122.38556 | 24 ft | 2 kts | 158° |
| 2026-05-04 23:34 | 37.61943 | -122.38533 | 23 ft | 3 kts | 109° |
| 2026-05-04 23:34 | 37.61933 | -122.38505 | 21 ft | 4 kts | 117° |
| 2026-05-04 23:34 | 37.61928 | -122.38491 | 21 ft | 0 kts | 117° |